Kraljevo, Serbia
Current Conditions -  °F | °C
As of 8:00 PM on Wednesday 28 Jan 2015 (Local Time) from LYKV Reporting Station
Overcast Overcast  
Wind Chill: 32°   Ceiling: 2700
Heat Index: 32°   Visibility: 5mi
Dew Point: 32°   Wind: 2mph
Humidity: 100%   Direction: 280°W
Pressure: 30"   Gusts: NA
Location:  43.74°N, 20.67°E
Report Text: LYKV 281800Z 28002KT 8000 SCT010 OVC027 00/00 Q1016 NOSIG
Loading
Personal Weather Stations






























Interactive Weather Map New forecast layout! Learn more

10-Day Weather Forecast

Advertisements
Track Severe Weather on mobile